Time;durP1;ratioP1;P1;durP2;ratioP2;P2;SDS_P1;SDS_P2;PMS_P1;PMS_P2;Temp;Humidity;BMP_temperature;BMP_pressure;BME280_temperature;BME280_humidity;BME280_pressure;Samples;Min_cycle;Max_cycle;Signal;HPM_P1;HPM_P2
2021/09/19 00:02:29;;;;;;;8.75;4.82;;;;;;;;;;8261315;28;20519;-78
2021/09/19 00:06:33;;;;;;;7.68;4.68;;;;;;;;;;8263037;28;20452;-79
2021/09/19 00:10:38;;;;;;;7.18;4.72;;;;;;;;;;8256359;28;20620;-78
2021/09/19 00:14:43;;;;;;;10.88;5.25;;;;;;;;;;8262102;28;20367;-79
2021/09/19 00:18:47;;;;;;;7.07;4.93;;;;;;;;;;8263202;28;20456;-78
2021/09/19 00:22:52;;;;;;;10.48;5.95;;;;;;;;;;8261139;28;20049;-78
2021/09/19 00:26:57;;;;;;;9.43;5.53;;;;;;;;;;8257670;28;20463;-78
2021/09/19 00:31:01;;;;;;;7.85;5.18;;;;;;;;;;8258498;28;20498;-78
2021/09/19 00:35:09;;;;;;;6.35;4.75;;;;;;;;;;8260482;28;20045;-78
2021/09/19 00:39:14;;;;;;;8.73;5.07;;;;;;;;;;8259890;28;20391;-79
2021/09/19 00:43:19;;;;;;;5.28;4.00;;;;;;;;;;8262442;28;20337;-78
2021/09/19 00:47:24;;;;;;;5.38;3.80;;;;;;;;;;8259475;28;20399;-78
2021/09/19 00:51:30;;;;;;;5.30;3.25;;;;;;;;;;8273961;28;20460;-79
2021/09/19 00:55:35;;;;;;;5.97;3.58;;;;;;;;;;8257567;28;20463;-77
2021/09/19 00:59:42;;;;;;;6.03;3.17;;;;;;;;;;8259809;28;20472;-79
2021/09/19 01:03:48;;;;;;;7.30;3.70;;;;;;;;;;8257875;28;20482;-78
2021/09/19 01:07:53;;;;;;;6.50;4.25;;;;;;;;;;8258276;28;20407;-78
2021/09/19 01:12:01;;;;;;;8.57;4.82;;;;;;;;;;8258642;28;20075;-78
2021/09/19 01:16:07;;;;;;;6.47;4.35;;;;;;;;;;8258589;28;20359;-77
2021/09/19 01:20:14;;;;;;;12.00;5.40;;;;;;;;;;8257803;28;20467;-78
2021/09/19 01:24:19;;;;;;;11.57;5.18;;;;;;;;;;8256971;28;20037;-80
2021/09/19 01:28:23;;;;;;;10.73;5.90;;;;;;;;;;8259237;28;20347;-78
2021/09/19 01:32:28;;;;;;;14.55;5.80;;;;;;;;;;8257688;28;20067;-78
2021/09/19 01:36:36;;;;;;;6.85;4.45;;;;;;;;;;8256434;28;20480;-78
2021/09/19 01:40:40;;;;;;;6.38;4.00;;;;;;;;;;8251695;28;20068;-77
2021/09/19 01:44:44;;;;;;;7.18;3.92;;;;;;;;;;8257288;28;20495;-78
2021/09/19 01:48:49;;;;;;;6.47;3.50;;;;;;;;;;8258535;28;20476;-80
2021/09/19 01:52:56;;;;;;;5.60;3.55;;;;;;;;;;8257899;28;20376;-77
2021/09/19 01:57:00;;;;;;;5.07;3.50;;;;;;;;;;8256733;28;20068;-78
2021/09/19 02:01:04;;;;;;;7.68;3.58;;;;;;;;;;8274388;28;20464;-79
2021/09/19 02:05:12;;;;;;;4.20;3.10;;;;;;;;;;8257483;28;20353;-77
2021/09/19 02:09:17;;;;;;;5.55;3.20;;;;;;;;;;8252816;28;20375;-78
2021/09/19 02:13:22;;;;;;;6.45;3.17;;;;;;;;;;8257765;28;20353;-78
2021/09/19 02:17:28;;;;;;;4.70;3.40;;;;;;;;;;8256473;28;20471;-78
2021/09/19 02:21:33;;;;;;;7.45;3.10;;;;;;;;;;8256196;28;20130;-79
2021/09/19 02:25:38;;;;;;;7.22;3.00;;;;;;;;;;8256358;28;20360;-78
2021/09/19 02:29:43;;;;;;;4.75;2.85;;;;;;;;;;8256781;28;20384;-79
2021/09/19 02:33:48;;;;;;;4.47;3.17;;;;;;;;;;8238411;28;20414;-77
2021/09/19 02:37:52;;;;;;;6.65;3.67;;;;;;;;;;8281912;28;20375;-77
2021/09/19 02:41:57;;;;;;;6.40;3.75;;;;;;;;;;8280399;28;20036;-79
2021/09/19 02:46:02;;;;;;;5.82;3.92;;;;;;;;;;8289485;28;20452;-78
2021/09/19 02:50:09;;;;;;;11.32;4.05;;;;;;;;;;8289992;28;20050;-78
2021/09/19 02:54:13;;;;;;;7.38;3.92;;;;;;;;;;8290946;28;20498;-79
2021/09/19 02:58:16;;;;;;;7.57;4.32;;;;;;;;;;8294509;28;20475;-79
2021/09/19 03:02:21;;;;;;;8.63;4.78;;;;;;;;;;8295355;28;20451;-78
2021/09/19 03:06:26;;;;;;;9.40;4.68;;;;;;;;;;8285363;28;20489;-78
2021/09/19 03:10:30;;;;;;;8.55;4.93;;;;;;;;;;8295597;28;20036;-78
2021/09/19 03:14:34;;;;;;;8.52;5.47;;;;;;;;;;8291859;28;20352;-78
2021/09/19 03:18:38;;;;;;;6.20;4.53;;;;;;;;;;8283249;28;20040;-78
2021/09/19 03:22:45;;;;;;;8.02;5.10;;;;;;;;;;8294475;28;20439;-78
2021/09/19 03:26:50;;;;;;;8.05;4.93;;;;;;;;;;8293977;28;20343;-78
2021/09/19 03:30:56;;;;;;;6.55;4.50;;;;;;;;;;8295939;28;20467;-78
2021/09/19 03:35:01;;;;;;;6.78;4.20;;;;;;;;;;8294600;28;20379;-77
2021/09/19 03:39:06;;;;;;;8.00;4.30;;;;;;;;;;8296959;28;20049;-77
2021/09/19 03:43:12;;;;;;;8.13;4.93;;;;;;;;;;8295497;28;20347;-78
2021/09/19 03:47:18;;;;;;;10.02;4.63;;;;;;;;;;8292160;28;20473;-78
2021/09/19 03:51:23;;;;;;;11.88;5.07;;;;;;;;;;8297251;28;20064;-79
2021/09/19 03:55:28;;;;;;;8.98;4.85;;;;;;;;;;8293982;28;20463;-77
2021/09/19 03:59:33;;;;;;;6.55;4.70;;;;;;;;;;8294829;28;20438;-78
2021/09/19 04:03:38;;;;;;;6.30;3.63;;;;;;;;;;8295521;28;20345;-78
2021/09/19 04:07:44;;;;;;;8.45;4.35;;;;;;;;;;8292655;28;20040;-78
2021/09/19 04:11:49;;;;;;;7.05;4.38;;;;;;;;;;8283173;28;20060;-78
2021/09/19 04:15:53;;;;;;;8.25;4.25;;;;;;;;;;8293895;28;20447;-78
2021/09/19 04:19:59;;;;;;;9.57;4.30;;;;;;;;;;8289952;28;20494;-77
2021/09/19 04:24:06;;;;;;;7.45;4.30;;;;;;;;;;8292377;28;20464;-79
2021/09/19 04:28:11;;;;;;;7.22;4.43;;;;;;;;;;8288472;28;20063;-78
2021/09/19 04:32:18;;;;;;;6.00;3.92;;;;;;;;;;8291614;28;20475;-79
2021/09/19 04:36:22;;;;;;;7.82;4.07;;;;;;;;;;8292065;28;20459;-78
2021/09/19 04:40:27;;;;;;;7.25;4.25;;;;;;;;;;8291862;28;20393;-78
2021/09/19 04:44:31;;;;;;;7.28;4.55;;;;;;;;;;8290551;28;20037;-77
2021/09/19 04:48:36;;;;;;;9.15;4.63;;;;;;;;;;8292038;28;20500;-77
2021/09/19 04:52:41;;;;;;;5.65;3.75;;;;;;;;;;8292979;28;20037;-77
2021/09/19 04:56:46;;;;;;;5.63;3.67;;;;;;;;;;8290902;28;20500;-78
2021/09/19 05:00:51;;;;;;;7.32;4.57;;;;;;;;;;8292319;28;20363;-78
2021/09/19 05:04:57;;;;;;;10.57;4.75;;;;;;;;;;8277277;28;20485;-77
2021/09/19 05:09:02;;;;;;;7.22;4.43;;;;;;;;;;8282600;28;20491;-78
2021/09/19 05:13:06;;;;;;;7.45;4.63;;;;;;;;;;8290323;28;20320;-78
2021/09/19 05:17:12;;;;;;;11.45;5.40;;;;;;;;;;8296922;28;20344;-78
2021/09/19 05:21:16;;;;;;;6.95;4.65;;;;;;;;;;8290279;28;20367;-78
2021/09/19 05:25:20;;;;;;;9.40;4.55;;;;;;;;;;8288742;28;20475;-79
2021/09/19 05:29:24;;;;;;;7.75;4.90;;;;;;;;;;8290683;28;20505;-78
2021/09/19 05:33:29;;;;;;;7.13;4.97;;;;;;;;;;8289544;28;20049;-78
2021/09/19 05:37:34;;;;;;;11.25;4.50;;;;;;;;;;8291040;28;20439;-77
2021/09/19 05:41:40;;;;;;;10.77;5.07;;;;;;;;;;8289826;28;20456;-78
2021/09/19 05:45:45;;;;;;;6.38;3.78;;;;;;;;;;8291933;28;20481;-78
2021/09/19 05:49:52;;;;;;;6.57;3.55;;;;;;;;;;8288922;28;20041;-78
2021/09/19 05:53:56;;;;;;;6.15;4.22;;;;;;;;;;8270036;28;20455;-77
2021/09/19 05:58:00;;;;;;;6.32;3.53;;;;;;;;;;8290673;28;20068;-78
2021/09/19 06:02:04;;;;;;;5.38;3.08;;;;;;;;;;8290657;28;20436;-79
2021/09/19 06:06:10;;;;;;;4.55;3.22;;;;;;;;;;8289200;28;20401;-78
2021/09/19 06:10:14;;;;;;;6.43;3.53;;;;;;;;;;8286396;28;20375;-78
2021/09/19 06:14:19;;;;;;;6.05;3.47;;;;;;;;;;8285335;28;20058;-78
2021/09/19 06:18:55;;;;;;;4.97;3.38;;;;;;;;;;8276386;28;20553;-78
2021/09/19 06:22:59;;;;;;;6.47;3.25;;;;;;;;;;8290699;28;20550;-79
2021/09/19 06:27:03;;;;;;;6.63;3.47;;;;;;;;;;8251474;28;20063;-78
2021/09/19 06:31:07;;;;;;;7.18;3.83;;;;;;;;;;8277762;28;20398;-79
2021/09/19 06:35:12;;;;;;;6.13;3.80;;;;;;;;;;8281983;28;20477;-79
2021/09/19 06:39:18;;;;;;;6.30;3.28;;;;;;;;;;8272069;28;20075;-78
2021/09/19 06:43:22;;;;;;;6.63;3.30;;;;;;;;;;8277549;28;20037;-79
2021/09/19 06:47:27;;;;;;;14.43;3.97;;;;;;;;;;8280742;28;20490;-79
2021/09/19 06:51:31;;;;;;;7.43;3.40;;;;;;;;;;8260906;28;20102;-80
2021/09/19 06:55:35;;;;;;;5.10;2.90;;;;;;;;;;8263802;28;20486;-78
2021/09/19 06:59:39;;;;;;;6.22;3.72;;;;;;;;;;8275750;28;21226;-78
2021/09/19 07:03:44;;;;;;;4.78;2.70;;;;;;;;;;8258094;28;20045;-78
2021/09/19 07:07:49;;;;;;;9.38;3.50;;;;;;;;;;8257099;28;20357;-78
2021/09/19 07:11:55;;;;;;;9.73;3.72;;;;;;;;;;8256082;28;20499;-78
2021/09/19 07:16:00;;;;;;;9.57;2.88;;;;;;;;;;8218600;28;20510;-78
2021/09/19 07:20:04;;;;;;;7.35;3.03;;;;;;;;;;8256778;28;20494;-80
2021/09/19 07:24:11;;;;;;;9.88;3.85;;;;;;;;;;8254785;28;20360;-79
2021/09/19 07:28:17;;;;;;;5.45;3.30;;;;;;;;;;8254601;28;20399;-78
2021/09/19 07:32:22;;;;;;;9.80;3.17;;;;;;;;;;8255006;28;20068;-79
2021/09/19 07:36:28;;;;;;;5.70;3.20;;;;;;;;;;8253419;28;20037;-79
2021/09/19 07:40:33;;;;;;;5.90;3.05;;;;;;;;;;8255091;28;20483;-79
2021/09/19 07:44:38;;;;;;;6.93;2.63;;;;;;;;;;8260446;28;20348;-78
2021/09/19 07:48:43;;;;;;;10.73;4.35;;;;;;;;;;8259709;28;20063;-78
2021/09/19 07:52:46;;;;;;;6.65;3.72;;;;;;;;;;8260286;28;20084;-79
2021/09/19 07:56:50;;;;;;;8.88;3.90;;;;;;;;;;8257930;28;20370;-76
2021/09/19 08:00:55;;;;;;;7.43;4.45;;;;;;;;;;8258990;28;20486;-78
2021/09/19 08:04:59;;;;;;;6.88;3.35;;;;;;;;;;8260328;28;20072;-77
2021/09/19 08:09:04;;;;;;;5.38;2.90;;;;;;;;;;8261121;28;20480;-77
2021/09/19 08:13:09;;;;;;;5.05;3.17;;;;;;;;;;8261152;28;20044;-78
2021/09/19 08:17:14;;;;;;;11.73;5.30;;;;;;;;;;8260589;28;20395;-78
2021/09/19 08:21:18;;;;;;;8.07;3.30;;;;;;;;;;8261886;28;20452;-77
2021/09/19 08:25:22;;;;;;;8.65;4.25;;;;;;;;;;8261239;28;20059;-77
2021/09/19 08:29:26;;;;;;;3.55;2.30;;;;;;;;;;8262488;28;20452;-76
2021/09/19 08:33:30;;;;;;;5.25;2.50;;;;;;;;;;8262555;28;20447;-78
2021/09/19 08:37:34;;;;;;;15.75;3.78;;;;;;;;;;8262590;28;20059;-77
2021/09/19 08:41:38;;;;;;;8.32;3.72;;;;;;;;;;8261938;28;20059;-75
2021/09/19 08:45:46;;;;;;;9.63;4.28;;;;;;;;;;8234107;28;20063;-76
2021/09/19 08:49:51;;;;;;;7.20;2.88;;;;;;;;;;8261528;28;20363;-75
2021/09/19 08:53:57;;;;;;;4.40;2.38;;;;;;;;;;8252542;28;20444;-75
2021/09/19 08:58:01;;;;;;;9.18;4.88;;;;;;;;;;8263314;28;20444;-76
2021/09/19 09:02:05;;;;;;;7.85;3.47;;;;;;;;;;8244902;28;20040;-76
2021/09/19 09:06:09;;;;;;;4.75;3.20;;;;;;;;;;8262191;28;20487;-75
2021/09/19 09:10:14;;;;;;;6.65;2.65;;;;;;;;;;8259899;28;20471;-75
2021/09/19 09:14:22;;;;;;;8.15;2.80;;;;;;;;;;8263610;28;21092;-75
2021/09/19 09:18:38;;;;;;;;;;;;;;;;;;8260164;28;20471;-76
2021/09/19 09:22:43;;;;;;;2.58;1.70;;;;;;;;;;8260148;28;19928;-74
2021/09/19 09:26:47;;;;;;;5.95;2.10;;;;;;;;;;8260079;28;20478;-76
2021/09/19 09:30:59;;;;;;;7.10;2.45;;;;;;;;;;8275082;28;20384;-74
2021/09/19 09:35:13;;;;;;;5.18;2.97;;;;;;;;;;8256144;28;20351;-76
2021/09/19 09:39:42;;;;;;;5.75;3.35;;;;;;;;;;8257112;28;20470;-75
2021/09/19 09:43:46;;;;;;;4.43;2.20;;;;;;;;;;8255628;28;20048;-75
2021/09/19 09:47:50;;;;;;;4.78;2.03;;;;;;;;;;8258397;28;20060;-74
2021/09/19 09:51:55;;;;;;;6.20;1.92;;;;;;;;;;8258639;28;20371;-74
2021/09/19 09:56:01;;;;;;;6.43;2.20;;;;;;;;;;8257015;28;20518;-74
2021/09/19 10:00:18;;;;;;;5.65;2.28;;;;;;;;;;8256674;28;20439;-74
2021/09/19 10:04:22;;;;;;;4.50;2.73;;;;;;;;;;8252487;28;20578;-74
2021/09/19 10:08:26;;;;;;;3.97;2.38;;;;;;;;;;8258985;28;20490;-74
2021/09/19 10:12:31;;;;;;;5.00;2.25;;;;;;;;;;8271420;28;20340;-74
2021/09/19 10:16:38;;;;;;;5.28;2.45;;;;;;;;;;8256771;28;20063;-74
2021/09/19 10:20:45;;;;;;;7.63;3.08;;;;;;;;;;8253840;28;20063;-74
2021/09/19 10:24:49;;;;;;;3.63;2.10;;;;;;;;;;8256110;28;20392;-75
2021/09/19 10:28:55;;;;;;;4.10;2.35;;;;;;;;;;8258363;28;20079;-75
2021/09/19 10:33:00;;;;;;;5.78;2.60;;;;;;;;;;8254126;28;20443;-73
2021/09/19 10:37:05;;;;;;;5.70;2.50;;;;;;;;;;8257844;28;20394;-73
2021/09/19 10:41:21;;;;;;;6.78;3.80;;;;;;;;;;8256132;28;20337;-73
2021/09/19 10:45:38;;;;;;;4.60;2.72;;;;;;;;;;8254968;28;20479;-74
2021/09/19 10:49:42;;;;;;;6.37;4.00;;;;;;;;;;8254139;28;20460;-74
2021/09/19 10:53:48;;;;;;;7.93;3.95;;;;;;;;;;8253421;28;20336;-75
2021/09/19 10:58:11;;;;;;;3.15;1.95;;;;;;;;;;8255205;28;20363;-74
2021/09/19 11:02:29;;;;;;;22.25;6.68;;;;;;;;;;8255734;28;20402;-74
2021/09/19 11:06:42;;;;;;;6.40;2.33;;;;;;;;;;8254691;28;20064;-73
2021/09/19 11:10:45;;;;;;;6.55;2.60;;;;;;;;;;8255128;28;20484;-73
2021/09/19 11:15:07;;;;;;;6.47;3.38;;;;;;;;;;8254212;28;20364;-73
2021/09/19 11:19:22;;;;;;;9.38;4.32;;;;;;;;;;8274249;28;20468;-74
2021/09/19 11:23:30;;;;;;;10.02;4.80;;;;;;;;;;8262766;28;20345;-73
2021/09/19 11:27:35;;;;;;;5.43;3.45;;;;;;;;;;8258747;28;20489;-73
2021/09/19 11:31:43;;;;;;;;;;;;;;;;;;8261579;28;20041;-73
2021/09/19 11:35:47;;;;;;;4.90;2.60;;;;;;;;;;8262639;28;20259;-73
2021/09/19 11:39:52;;;;;;;3.17;2.20;;;;;;;;;;8275262;28;20321;-73
2021/09/19 11:43:57;;;;;;;4.82;2.53;;;;;;;;;;8258689;28;20432;-74
2021/09/19 11:48:02;;;;;;;4.35;2.63;;;;;;;;;;8184313;28;20479;-73
2021/09/19 11:52:06;;;;;;;5.70;2.92;;;;;;;;;;8243295;28;20448;-73
2021/09/19 11:56:37;;;;;;;4.47;2.57;;;;;;;;;;8245075;28;20532;-73
2021/09/19 12:00:41;;;;;;;6.90;3.10;;;;;;;;;;8260303;28;20478;-73
2021/09/19 12:04:47;;;;;;;3.85;2.50;;;;;;;;;;8259749;28;20104;-73
2021/09/19 12:08:51;;;;;;;7.25;2.95;;;;;;;;;;8259926;28;20033;-73
2021/09/19 12:12:58;;;;;;;7.10;2.53;;;;;;;;;;8258336;28;20068;-73
2021/09/19 12:17:11;;;;;;;5.57;2.63;;;;;;;;;;8241209;28;20321;-73
2021/09/19 12:21:24;;;;;;;4.07;2.30;;;;;;;;;;8221070;28;20457;-73
2021/09/19 12:25:29;;;;;;;4.45;2.20;;;;;;;;;;8257597;28;20467;-74
2021/09/19 12:29:32;;;;;;;3.47;1.83;;;;;;;;;;8258566;28;20371;-73
2021/09/19 12:33:55;;;;;;;3.88;2.40;;;;;;;;;;8258862;28;20672;-73
2021/09/19 12:38:03;;;;;;;3.60;2.20;;;;;;;;;;8258269;28;20068;-74
2021/09/19 12:42:07;;;;;;;2.65;1.77;;;;;;;;;;8258578;28;20040;-74
2021/09/19 12:46:18;;;;;;;3.38;1.80;;;;;;;;;;8260461;28;20488;-74
2021/09/19 12:50:22;;;;;;;5.50;2.33;;;;;;;;;;8257994;28;20448;-73
2021/09/19 12:54:26;;;;;;;3.20;1.98;;;;;;;;;;8256383;28;20075;-73
2021/09/19 12:58:31;;;;;;;3.53;2.08;;;;;;;;;;8256856;28;20376;-74
2021/09/19 13:02:35;;;;;;;5.65;2.72;;;;;;;;;;8259975;28;20451;-73
2021/09/19 13:06:39;;;;;;;3.65;1.80;;;;;;;;;;8256047;28;20475;-73
2021/09/19 13:10:43;;;;;;;7.93;1.95;;;;;;;;;;8256630;28;20352;-73
2021/09/19 13:14:47;;;;;;;7.30;2.05;;;;;;;;;;8257883;28;20474;-73
2021/09/19 13:18:51;;;;;;;5.30;2.47;;;;;;;;;;8256472;28;20075;-73
2021/09/19 13:22:55;;;;;;;5.93;3.17;;;;;;;;;;8256604;28;20372;-73
2021/09/19 13:27:03;;;;;;;3.08;2.20;;;;;;;;;;8259096;28;20455;-73
2021/09/19 13:31:07;;;;;;;8.70;2.28;;;;;;;;;;8259054;28;20067;-74
2021/09/19 13:35:14;;;;;;;8.95;2.10;;;;;;;;;;8256784;28;20390;-73
2021/09/19 13:39:19;;;;;;;4.80;2.25;;;;;;;;;;8252671;28;20394;-74
2021/09/19 13:43:23;;;;;;;4.47;2.50;;;;;;;;;;8255981;28;20367;-73
2021/09/19 13:47:28;;;;;;;4.65;2.63;;;;;;;;;;8257407;28;20096;-72
2021/09/19 13:51:32;;;;;;;3.08;2.10;;;;;;;;;;8257818;28;20378;-73
2021/09/19 13:55:35;;;;;;;6.82;3.60;;;;;;;;;;8253489;28;20468;-73
2021/09/19 13:59:40;;;;;;;10.68;3.33;;;;;;;;;;8256314;28;20387;-74
2021/09/19 14:03:44;;;;;;;7.05;2.60;;;;;;;;;;8254517;28;20068;-73
2021/09/19 14:07:48;;;;;;;6.93;3.08;;;;;;;;;;8257175;28;20476;-73
2021/09/19 14:11:54;;;;;;;4.43;2.15;;;;;;;;;;8257327;28;20403;-74
2021/09/19 14:15:59;;;;;;;5.90;2.78;;;;;;;;;;8255951;28;20352;-73
2021/09/19 14:20:08;;;;;;;4.75;2.40;;;;;;;;;;8257806;28;20425;-74
2021/09/19 14:24:13;;;;;;;6.30;3.67;;;;;;;;;;8254012;28;20048;-72
2021/09/19 14:28:17;;;;;;;5.68;2.75;;;;;;;;;;8252892;28;20479;-73
2021/09/19 14:32:21;;;;;;;6.82;3.17;;;;;;;;;;8254878;28;20447;-74
2021/09/19 14:36:26;;;;;;;4.50;2.63;;;;;;;;;;8257380;28;20087;-73
2021/09/19 14:40:31;;;;;;;6.03;2.40;;;;;;;;;;8255552;28;20033;-72
2021/09/19 14:44:35;;;;;;;3.85;2.40;;;;;;;;;;8255709;28;20068;-75
2021/09/19 14:48:40;;;;;;;10.27;4.53;;;;;;;;;;8254261;28;20483;-74
2021/09/19 14:52:45;;;;;;;9.05;3.28;;;;;;;;;;8257418;28;20408;-74
2021/09/19 14:56:50;;;;;;;10.50;2.50;;;;;;;;;;8264629;28;20410;-74
2021/09/19 15:00:55;;;;;;;6.60;2.88;;;;;;;;;;8263553;28;20468;-74
2021/09/19 15:05:01;;;;;;;3.10;2.10;;;;;;;;;;8262258;28;20420;-74
2021/09/19 15:09:06;;;;;;;5.95;2.20;;;;;;;;;;8264721;28;20045;-73
2021/09/19 15:13:11;;;;;;;6.22;2.40;;;;;;;;;;8262517;28;20063;-73
2021/09/19 15:17:16;;;;;;;4.32;2.65;;;;;;;;;;8264005;28;20505;-73
2021/09/19 15:21:22;;;;;;;4.18;2.20;;;;;;;;;;8264266;28;20452;-73
2021/09/19 15:25:27;;;;;;;3.90;2.53;;;;;;;;;;8263288;28;20526;-73
2021/09/19 15:29:32;;;;;;;4.15;2.50;;;;;;;;;;8277524;28;20491;-73
2021/09/19 15:33:39;;;;;;;7.75;2.70;;;;;;;;;;8260532;28;20348;-73
2021/09/19 15:37:44;;;;;;;8.63;3.20;;;;;;;;;;8260714;28;20386;-73
2021/09/19 15:41:50;;;;;;;7.50;3.75;;;;;;;;;;8259465;28;20072;-73
2021/09/19 15:46:05;;;;;;;9.50;3.88;;;;;;;;;;8262258;28;20475;-73
2021/09/19 15:50:11;;;;;;;11.32;4.68;;;;;;;;;;8262600;28;20226;-73
2021/09/19 15:54:16;;;;;;;10.20;3.60;;;;;;;;;;8260569;28;20352;-73
2021/09/19 15:58:24;;;;;;;9.52;3.35;;;;;;;;;;8261343;28;20368;-73
2021/09/19 16:02:29;;;;;;;9.25;3.58;;;;;;;;;;8243650;28;20446;-74
2021/09/19 16:06:34;;;;;;;9.15;3.97;;;;;;;;;;8260599;28;20506;-73
2021/09/19 16:10:40;;;;;;;6.75;3.22;;;;;;;;;;8261748;28;20033;-73
2021/09/19 16:14:45;;;;;;;8.55;4.40;;;;;;;;;;8261623;28;20076;-74
2021/09/19 16:18:50;;;;;;;29.52;11.00;;;;;;;;;;8260974;28;20064;-73
2021/09/19 16:22:56;;;;;;;5.13;3.53;;;;;;;;;;8260694;28;20491;-73
2021/09/19 16:27:01;;;;;;;15.55;4.55;;;;;;;;;;8260905;28;20041;-73
2021/09/19 16:31:06;;;;;;;12.45;4.43;;;;;;;;;;8261110;28;20423;-73
2021/09/19 16:35:12;;;;;;;7.18;3.55;;;;;;;;;;8175458;28;20056;-73
2021/09/19 16:39:17;;;;;;;11.15;3.80;;;;;;;;;;8260384;28;20490;-73
2021/09/19 16:43:23;;;;;;;8.43;4.03;;;;;;;;;;8259583;28;20068;-73
2021/09/19 16:47:29;;;;;;;10.68;4.15;;;;;;;;;;8259698;28;20399;-74
2021/09/19 16:51:37;;;;;;;16.65;8.55;;;;;;;;;;8260067;28;20488;-72
2021/09/19 16:55:43;;;;;;;22.30;10.55;;;;;;;;;;8257688;28;20464;-73
2021/09/19 16:59:51;;;;;;;42.72;15.70;;;;;;;;;;8259597;28;20575;-73
2021/09/19 17:03:54;;;;;;;65.53;29.38;;;;;;;;;;8263143;28;20443;-74
2021/09/19 17:08:00;;;;;;;68.35;26.60;;;;;;;;;;8260609;28;20475;-73
2021/09/19 17:12:06;;;;;;;63.65;25.52;;;;;;;;;;8257188;28;20064;-73
2021/09/19 17:16:13;;;;;;;71.05;26.20;;;;;;;;;;8258973;28;20365;-73
2021/09/19 17:20:19;;;;;;;69.65;26.55;;;;;;;;;;8257724;28;20049;-73
2021/09/19 17:24:24;;;;;;;40.85;17.33;;;;;;;;;;8274144;28;20487;-73
2021/09/19 17:28:29;;;;;;;23.20;9.50;;;;;;;;;;8256997;28;20480;-73
2021/09/19 17:32:34;;;;;;;17.23;7.97;;;;;;;;;;8257201;28;20084;-73
2021/09/19 17:36:42;;;;;;;19.60;8.40;;;;;;;;;;8258132;28;20507;-72
2021/09/19 17:40:47;;;;;;;8.50;4.97;;;;;;;;;;8257258;28;20099;-73
2021/09/19 17:44:52;;;;;;;7.57;4.20;;;;;;;;;;8258024;28;21003;-73
2021/09/19 17:49:03;;;;;;;11.90;5.43;;;;;;;;;;8259174;28;20491;-73
2021/09/19 17:53:12;;;;;;;49.88;21.55;;;;;;;;;;8258420;28;20463;-72
2021/09/19 17:57:17;;;;;;;41.42;15.90;;;;;;;;;;8258022;28;20470;-73
2021/09/19 18:01:22;;;;;;;30.55;12.52;;;;;;;;;;8258620;28;20431;-73
2021/09/19 18:05:28;;;;;;;32.80;14.10;;;;;;;;;;8257502;28;20499;-72
2021/09/19 18:09:33;;;;;;;42.08;18.73;;;;;;;;;;8257643;28;20452;-73
2021/09/19 18:13:39;;;;;;;37.83;20.15;;;;;;;;;;8255978;28;20332;-73
2021/09/19 18:17:44;;;;;;;37.83;22.38;;;;;;;;;;8257523;28;20506;-73
2021/09/19 18:21:50;;;;;;;114.63;51.17;;;;;;;;;;8274030;28;20464;-72
2021/09/19 18:25:55;;;;;;;80.25;34.78;;;;;;;;;;8257377;28;20384;-73
2021/09/19 18:30:02;;;;;;;84.03;30.45;;;;;;;;;;8258096;28;20364;-73
2021/09/19 18:34:08;;;;;;;35.45;18.52;;;;;;;;;;8256048;28;20345;-72
2021/09/19 18:38:15;;;;;;;32.78;15.27;;;;;;;;;;8256874;28;20372;-73
2021/09/19 18:42:20;;;;;;;17.85;8.60;;;;;;;;;;8257224;28;20395;-73
2021/09/19 18:46:26;;;;;;;11.18;5.72;;;;;;;;;;8259336;28;20063;-73
2021/09/19 18:50:32;;;;;;;14.15;7.32;;;;;;;;;;8259772;28;20402;-73
2021/09/19 18:54:38;;;;;;;13.88;6.65;;;;;;;;;;8256842;28;20083;-74
2021/09/19 18:58:43;;;;;;;13.10;5.80;;;;;;;;;;8258027;28;20198;-73
2021/09/19 19:02:48;;;;;;;14.80;5.50;;;;;;;;;;8256539;28;20364;-72
2021/09/19 19:06:54;;;;;;;31.23;11.13;;;;;;;;;;8273061;28;20490;-73
2021/09/19 19:10:59;;;;;;;46.30;14.90;;;;;;;;;;8257188;28;20354;-73
2021/09/19 19:15:05;;;;;;;53.72;15.82;;;;;;;;;;8271718;28;20053;-73
2021/09/19 19:19:12;;;;;;;50.83;16.60;;;;;;;;;;8258596;28;20478;-73
2021/09/19 19:23:18;;;;;;;43.78;14.82;;;;;;;;;;8256626;28;20476;-73
2021/09/19 19:27:23;;;;;;;16.33;6.07;;;;;;;;;;8254887;28;20460;-73
2021/09/19 19:31:29;;;;;;;11.10;5.45;;;;;;;;;;8272259;28;20362;-73
2021/09/19 19:35:35;;;;;;;20.55;8.93;;;;;;;;;;8254349;28;20384;-73
2021/09/19 19:39:41;;;;;;;19.75;9.35;;;;;;;;;;8261205;28;20338;-73
2021/09/19 19:43:47;;;;;;;25.67;9.90;;;;;;;;;;8261132;28;20372;-73
2021/09/19 19:47:52;;;;;;;21.45;7.13;;;;;;;;;;8244710;28;20352;-73
2021/09/19 19:51:57;;;;;;;18.05;8.73;;;;;;;;;;8262948;28;20464;-72
2021/09/19 19:56:02;;;;;;;45.55;18.60;;;;;;;;;;8263454;28;20505;-73
2021/09/19 20:00:09;;;;;;;22.27;10.40;;;;;;;;;;8261102;28;20492;-73
2021/09/19 20:04:15;;;;;;;19.45;8.50;;;;;;;;;;8262018;28;20337;-73
2021/09/19 20:08:20;;;;;;;19.00;8.32;;;;;;;;;;8262401;28;20373;-73
2021/09/19 20:12:27;;;;;;;12.68;6.38;;;;;;;;;;8259640;28;20071;-73
2021/09/19 20:16:34;;;;;;;12.57;5.35;;;;;;;;;;8265108;28;20513;-72
2021/09/19 20:20:39;;;;;;;13.63;4.95;;;;;;;;;;8261629;28;20467;-73
2021/09/19 20:24:45;;;;;;;11.82;4.97;;;;;;;;;;8261006;28;20045;-73
2021/09/19 20:28:51;;;;;;;8.63;4.07;;;;;;;;;;8244183;28;20368;-73
2021/09/19 20:32:58;;;;;;;11.52;4.88;;;;;;;;;;8258806;28;20379;-73
2021/09/19 20:37:04;;;;;;;10.00;3.58;;;;;;;;;;8260798;28;20647;-72
2021/09/19 20:41:10;;;;;;;6.97;4.32;;;;;;;;;;8260952;28;20460;-75
2021/09/19 20:45:15;;;;;;;12.95;5.43;;;;;;;;;;8260865;28;20498;-72
2021/09/19 20:49:21;;;;;;;15.02;7.03;;;;;;;;;;8260641;28;20369;-75
2021/09/19 20:53:27;;;;;;;23.23;8.98;;;;;;;;;;8260696;28;20482;-75
2021/09/19 20:57:32;;;;;;;22.38;8.02;;;;;;;;;;8260042;28;20379;-74
2021/09/19 21:01:38;;;;;;;16.13;5.85;;;;;;;;;;8260175;28;20059;-75
2021/09/19 21:05:43;;;;;;;9.93;5.18;;;;;;;;;;8260387;28;20062;-75
2021/09/19 21:09:48;;;;;;;15.45;5.78;;;;;;;;;;8259065;28;20380;-74
2021/09/19 21:13:53;;;;;;;6.53;3.65;;;;;;;;;;8259897;28;20494;-75
2021/09/19 21:17:58;;;;;;;6.18;3.72;;;;;;;;;;8259883;28;20045;-74
2021/09/19 21:22:04;;;;;;;10.52;4.00;;;;;;;;;;8274033;28;20484;-74
2021/09/19 21:26:09;;;;;;;6.10;3.60;;;;;;;;;;8257341;28;20380;-75
2021/09/19 21:30:14;;;;;;;9.90;3.67;;;;;;;;;;8260391;28;20394;-75
2021/09/19 21:34:20;;;;;;;7.85;3.45;;;;;;;;;;8261443;28;20376;-74
2021/09/19 21:38:25;;;;;;;10.82;4.18;;;;;;;;;;8259786;28;20464;-75
2021/09/19 21:42:30;;;;;;;12.45;6.05;;;;;;;;;;8258995;28;20488;-75
2021/09/19 21:46:35;;;;;;;10.30;4.90;;;;;;;;;;8258140;28;20479;-74
2021/09/19 21:50:41;;;;;;;9.48;3.83;;;;;;;;;;8259520;28;20346;-74
2021/09/19 21:54:46;;;;;;;6.93;3.38;;;;;;;;;;8259372;28;20468;-74
2021/09/19 21:58:52;;;;;;;6.68;3.30;;;;;;;;;;8258799;28;20045;-75
2021/09/19 22:02:57;;;;;;;6.50;3.22;;;;;;;;;;8258339;28;20498;-74
2021/09/19 22:07:03;;;;;;;7.28;3.33;;;;;;;;;;8258617;28;20498;-75
2021/09/19 22:11:18;;;;;;;8.70;3.58;;;;;;;;;;8261306;28;20335;-75
2021/09/19 22:15:23;;;;;;;4.65;2.97;;;;;;;;;;8259990;28;20468;-74
2021/09/19 22:19:30;;;;;;;6.85;3.97;;;;;;;;;;8260714;28;20070;-74
2021/09/19 22:23:35;;;;;;;8.20;3.25;;;;;;;;;;8259627;28;20044;-74
2021/09/19 22:27:41;;;;;;;10.23;3.72;;;;;;;;;;8258548;28;20053;-75
2021/09/19 22:31:46;;;;;;;6.57;3.42;;;;;;;;;;8259534;28;20364;-74
2021/09/19 22:35:51;;;;;;;10.13;4.80;;;;;;;;;;8258067;28;20456;-75
2021/09/19 22:39:56;;;;;;;9.55;5.80;;;;;;;;;;8258147;28;20455;-74
2021/09/19 22:44:01;;;;;;;8.70;4.70;;;;;;;;;;8241015;28;20326;-74
2021/09/19 22:48:07;;;;;;;11.05;5.45;;;;;;;;;;8258000;28;20079;-75
2021/09/19 22:52:12;;;;;;;19.88;8.85;;;;;;;;;;8255856;28;20061;-74
2021/09/19 22:56:17;;;;;;;13.13;6.60;;;;;;;;;;8257005;28;20464;-75
2021/09/19 23:00:22;;;;;;;9.20;4.65;;;;;;;;;;8259208;28;20364;-75
2021/09/19 23:04:27;;;;;;;12.32;5.18;;;;;;;;;;8242507;28;20349;-74
2021/09/19 23:08:32;;;;;;;8.43;3.78;;;;;;;;;;8258629;28;20356;-74
2021/09/19 23:12:37;;;;;;;17.48;3.08;;;;;;;;;;8262767;28;20408;-74
2021/09/19 23:16:42;;;;;;;8.68;3.20;;;;;;;;;;8265124;28;20352;-74
2021/09/19 23:20:47;;;;;;;6.78;3.97;;;;;;;;;;8263300;28;20064;-74
2021/09/19 23:24:52;;;;;;;8.45;4.05;;;;;;;;;;8262707;28;20048;-75
2021/09/19 23:28:57;;;;;;;3.80;2.75;;;;;;;;;;8262964;28;20518;-75
2021/09/19 23:33:02;;;;;;;6.13;3.10;;;;;;;;;;8264105;28;20333;-75
2021/09/19 23:37:07;;;;;;;8.18;3.78;;;;;;;;;;8263578;28;20045;-74
2021/09/19 23:41:13;;;;;;;4.97;2.90;;;;;;;;;;8263753;28;20359;-74
2021/09/19 23:45:18;;;;;;;7.13;3.10;;;;;;;;;;8262733;28;20052;-74
2021/09/19 23:49:24;;;;;;;5.70;3.35;;;;;;;;;;8262129;28;20067;-75
2021/09/19 23:53:29;;;;;;;6.03;3.72;;;;;;;;;;8263419;28;20041;-75
2021/09/19 23:57:34;;;;;;;13.18;4.38;;;;;;;;;;8262423;28;20071;-75
